createdAt,value
2022-11-28T00:01:39.808Z,6.80
2022-11-28T00:05:46.976Z,6.80
2022-11-28T00:09:50.122Z,6.80
2022-11-28T00:13:53.591Z,6.80
2022-11-28T00:17:56.511Z,6.70
2022-11-28T00:22:00.688Z,6.80
2022-11-28T00:26:06.186Z,6.80
2022-11-28T00:30:10.192Z,6.80
2022-11-28T00:34:14.593Z,6.80
2022-11-28T00:38:18.791Z,6.90
2022-11-28T00:42:22.239Z,6.90
2022-11-28T00:46:25.448Z,6.90
2022-11-28T00:50:28.271Z,6.90
2022-11-28T00:54:32.470Z,6.90
2022-11-28T00:58:36.110Z,6.80
2022-11-28T01:02:38.989Z,6.80
2022-11-28T01:06:44.282Z,6.80
2022-11-28T01:10:48.453Z,6.70
2022-11-28T01:14:51.529Z,6.70
2022-11-28T01:18:54.736Z,6.70
2022-11-28T01:22:57.568Z,6.70
2022-11-28T01:27:01.748Z,6.70
2022-11-28T01:31:06.823Z,6.70
2022-11-28T01:35:10.698Z,6.60
2022-11-28T01:39:15.638Z,6.60
2022-11-28T01:43:20.364Z,6.60
2022-11-28T01:47:26.688Z,6.60
2022-11-28T01:51:31.120Z,6.60
2022-11-28T01:55:43.236Z,6.60
2022-11-28T01:59:52.022Z,6.60
2022-11-28T02:03:56.358Z,6.50
2022-11-28T02:07:59.324Z,6.50
2022-11-28T02:12:15.898Z,6.50
2022-11-28T02:16:38.190Z,6.50
2022-11-28T02:21:13.669Z,6.50
2022-11-28T02:25:39.110Z,6.50
2022-11-28T02:30:14.781Z,6.60
2022-11-28T02:34:25.534Z,6.60
2022-11-28T02:38:43.292Z,6.60
2022-11-28T02:42:59.098Z,6.60
2022-11-28T02:47:06.636Z,6.60
2022-11-28T02:51:17.086Z,6.60
2022-11-28T02:55:20.286Z,6.70
2022-11-28T02:59:33.042Z,6.60
2022-11-28T03:03:54.779Z,6.70
2022-11-28T03:08:06.747Z,6.70
2022-11-28T03:12:20.300Z,6.70
2022-11-28T03:16:29.665Z,6.70
2022-11-28T03:20:42.604Z,6.70
2022-11-28T03:24:50.306Z,6.80
2022-11-28T03:29:00.292Z,6.80
2022-11-28T03:33:04.862Z,6.90
2022-11-28T03:37:12.329Z,6.90
2022-11-28T03:41:21.734Z,6.90
2022-11-28T03:45:27.671Z,6.90
2022-11-28T03:49:33.101Z,6.90
2022-11-28T03:53:43.400Z,7.00
2022-11-28T03:57:52.196Z,7.00
2022-11-28T04:02:03.506Z,6.90
2022-11-28T04:06:15.566Z,6.90
2022-11-28T04:10:22.294Z,6.90
2022-11-28T04:14:31.666Z,6.90
2022-11-28T04:18:44.556Z,6.90
2022-11-28T04:22:52.260Z,6.90
2022-11-28T04:27:00.176Z,6.90
2022-11-28T04:31:06.901Z,7.00
2022-11-28T04:35:12.812Z,6.90
2022-11-28T04:39:19.115Z,7.00
2022-11-28T04:43:26.067Z,7.00
2022-11-28T04:47:30.659Z,7.00
2022-11-28T04:51:40.675Z,7.00
2022-11-28T04:55:47.699Z,7.00
2022-11-28T04:59:51.627Z,7.00
2022-11-28T05:03:56.211Z,7.00
2022-11-28T05:07:59.955Z,6.90
2022-11-28T05:12:03.117Z,6.90
2022-11-28T05:16:06.697Z,6.90
2022-11-28T05:20:11.725Z,6.90
2022-11-28T05:24:14.629Z,6.90
2022-11-28T05:28:17.465Z,6.90
2022-11-28T05:32:20.447Z,6.90
2022-11-28T05:36:25.301Z,6.90
2022-11-28T05:40:28.127Z,6.90
2022-11-28T05:44:31.022Z,6.90
2022-11-28T05:48:35.859Z,6.90
2022-11-28T05:52:40.081Z,6.80
2022-11-28T05:56:42.929Z,6.80
2022-11-28T06:00:45.832Z,6.80
2022-11-28T06:04:48.722Z,6.80
2022-11-28T06:08:53.935Z,6.80
2022-11-28T06:12:56.774Z,6.80
2022-11-28T06:16:59.846Z,6.70
2022-11-28T06:21:03.460Z,6.70
2022-11-28T06:25:08.035Z,6.60
2022-11-28T06:29:10.920Z,6.60
2022-11-28T06:33:13.741Z,6.60
2022-11-28T06:37:16.627Z,6.70
2022-11-28T06:41:22.816Z,6.70
2022-11-28T06:45:25.867Z,6.70
2022-11-28T06:49:28.907Z,6.70
2022-11-28T06:53:31.990Z,6.70
2022-11-28T06:57:36.829Z,6.80
2022-11-28T07:01:39.887Z,6.80
2022-11-28T07:05:42.766Z,6.80
2022-11-28T07:09:45.860Z,6.80
2022-11-28T07:13:51.342Z,6.80
2022-11-28T07:17:54.510Z,6.80
2022-11-28T07:21:57.369Z,6.80
2022-11-28T07:26:01.087Z,6.80
2022-11-28T07:30:06.358Z,6.90
2022-11-28T07:34:10.665Z,6.90
2022-11-28T07:38:13.462Z,6.90
2022-11-28T07:42:16.284Z,6.90
2022-11-28T07:46:25.147Z,6.80
2022-11-28T07:50:28.229Z,6.80
2022-11-28T07:54:31.059Z,6.80
2022-11-28T07:58:34.874Z,6.70
2022-11-28T08:02:41.037Z,6.70
2022-11-28T08:06:44.539Z,6.70
2022-11-28T08:10:47.976Z,6.70
2022-11-28T08:14:50.998Z,6.70
2022-11-28T08:18:56.517Z,6.70
2022-11-28T08:22:59.428Z,6.70
2022-11-28T08:27:02.388Z,6.70
2022-11-28T08:31:13.198Z,6.70
2022-11-28T08:35:17.720Z,6.60
2022-11-28T08:39:25.126Z,6.70
2022-11-28T08:43:28.520Z,6.60
2022-11-28T08:47:31.574Z,6.70
2022-11-28T08:51:35.861Z,6.70
2022-11-28T08:55:41.995Z,6.70
2022-11-28T08:59:45.430Z,6.70
2022-11-28T09:03:51.990Z,6.70
2022-11-28T09:07:57.712Z,6.70
2022-11-28T09:12:00.695Z,6.70
2022-11-28T09:16:04.281Z,6.70
2022-11-28T09:20:09.399Z,6.80
2022-11-28T09:24:13.923Z,6.70
2022-11-28T09:28:16.851Z,6.70
2022-11-28T09:32:19.669Z,6.80
2022-11-28T09:36:24.322Z,6.80
2022-11-28T09:40:34.790Z,6.80
2022-11-28T09:44:43.175Z,6.80
2022-11-28T09:48:49.406Z,6.80
2022-11-28T09:53:00.447Z,6.80
2022-11-28T09:57:09.646Z,6.80
2022-11-28T10:01:19.543Z,6.90
2022-11-28T10:05:30.170Z,6.90
2022-11-28T10:09:43.954Z,6.90
2022-11-28T10:14:14.287Z,7.00
2022-11-28T10:18:33.010Z,7.00
2022-11-28T10:22:42.283Z,7.00
2022-11-28T10:26:48.919Z,7.00
2022-11-28T10:31:00.838Z,7.10
2022-11-28T10:35:07.186Z,7.00
2022-11-28T10:39:13.538Z,7.10
2022-11-28T10:43:28.845Z,7.10
2022-11-28T10:47:56.588Z,7.10
2022-11-28T10:52:07.399Z,7.10
2022-11-28T10:56:23.523Z,7.20
2022-11-28T11:00:26.406Z,7.20
2022-11-28T11:04:34.525Z,7.20
2022-11-28T11:08:39.124Z,7.20
2022-11-28T11:12:42.532Z,7.20
2022-11-28T11:16:50.121Z,7.20
2022-11-28T11:21:08.912Z,7.20
2022-11-28T11:25:16.653Z,7.20
2022-11-28T11:29:24.607Z,7.20
2022-11-28T11:33:34.653Z,7.20
2022-11-28T11:37:39.662Z,7.20
2022-11-28T11:41:44.686Z,7.20
2022-11-28T11:45:52.419Z,7.20
2022-11-28T11:50:05.975Z,7.20
2022-11-28T11:54:18.274Z,7.20
2022-11-28T11:58:26.319Z,7.20
2022-11-28T12:02:36.743Z,7.20
2022-11-28T12:06:44.245Z,7.30
2022-11-28T12:10:52.850Z,7.30
2022-11-28T12:14:56.165Z,7.30
2022-11-28T12:19:10.299Z,7.30
2022-11-28T12:23:29.132Z,7.30
2022-11-28T12:27:52.935Z,7.40
2022-11-28T12:32:09.760Z,7.40
2022-11-28T12:36:20.371Z,7.50
2022-11-28T12:40:35.006Z,7.50
2022-11-28T12:44:52.328Z,7.50
2022-11-28T12:49:09.152Z,7.50
2022-11-28T12:53:53.083Z,7.50
2022-11-28T12:58:06.739Z,7.50
2022-11-28T13:02:25.397Z,7.50
2022-11-28T13:06:41.446Z,7.40
2022-11-28T13:10:52.339Z,7.40
2022-11-28T13:14:57.413Z,7.40
2022-11-28T13:19:06.223Z,7.40
2022-11-28T13:23:18.663Z,7.40
2022-11-28T13:27:33.037Z,7.40
2022-11-28T13:31:43.639Z,7.40
2022-11-28T13:35:48.504Z,7.40
2022-11-28T13:39:55.576Z,7.40
2022-11-28T13:44:04.558Z,7.40
2022-11-28T13:53:21.826Z,7.20
2022-11-28T13:57:28.523Z,7.10
2022-11-28T14:01:42.717Z,7.10
2022-11-28T14:05:46.368Z,7.10
2022-11-28T14:10:01.404Z,7.10
2022-11-28T14:14:20.526Z,7.10
2022-11-28T14:18:56.196Z,7.10
2022-11-28T14:23:21.075Z,7.00
2022-11-28T14:27:30.015Z,7.00
2022-11-28T14:31:35.487Z,7.00
2022-11-28T14:36:15.547Z,7.00
2022-11-28T14:41:00.566Z,7.00
2022-11-28T14:45:43.299Z,7.00
2022-11-28T14:49:47.422Z,7.00
2022-11-28T14:53:50.616Z,7.00
2022-11-28T14:57:58.988Z,7.00
2022-11-28T15:02:14.354Z,7.00
2022-11-28T15:06:22.229Z,6.90
2022-11-28T15:10:36.200Z,6.90
2022-11-28T15:14:40.879Z,6.90
2022-11-28T15:18:50.551Z,6.90
2022-11-28T15:22:53.778Z,6.90
2022-11-28T15:26:58.572Z,6.90
2022-11-28T15:31:03.465Z,6.90
2022-11-28T15:35:14.098Z,6.90
2022-11-28T15:39:26.907Z,6.90
2022-11-28T15:43:31.461Z,6.90
2022-11-28T15:47:35.085Z,6.90
2022-11-28T15:51:39.567Z,6.90
2022-11-28T15:55:42.787Z,6.90
2022-11-28T15:59:46.156Z,6.90
2022-11-28T16:03:53.501Z,6.90
2022-11-28T16:07:59.467Z,6.90
2022-11-28T16:12:04.957Z,6.80
2022-11-28T16:16:12.236Z,6.80
2022-11-28T16:20:24.279Z,6.80
2022-11-28T16:24:35.456Z,6.80
2022-11-28T16:28:41.677Z,6.80
2022-11-28T16:32:44.631Z,6.70
2022-11-28T16:36:49.768Z,6.70
2022-11-28T16:41:01.100Z,6.70
2022-11-28T16:45:12.500Z,6.70
2022-11-28T16:49:34.356Z,6.70
2022-11-28T16:53:45.189Z,6.80
2022-11-28T16:58:01.004Z,6.80
2022-11-28T17:02:04.728Z,6.70
2022-11-28T17:06:16.477Z,6.80
2022-11-28T17:10:19.629Z,6.70
2022-11-28T17:14:24.115Z,6.70
2022-11-28T17:18:27.220Z,6.80
2022-11-28T17:22:40.522Z,6.70
2022-11-28T17:26:45.908Z,6.70
2022-11-28T17:30:50.738Z,6.70
2022-11-28T17:34:54.725Z,6.70
2022-11-28T17:43:18.611Z,6.70
2022-11-28T17:47:23.735Z,6.70
2022-11-28T17:51:29.858Z,6.70
2022-11-28T17:55:34.334Z,6.70
2022-11-28T17:59:41.151Z,6.70
2022-11-28T18:03:46.065Z,6.70
2022-11-28T18:07:52.746Z,6.70
2022-11-28T18:11:55.734Z,6.70
2022-11-28T18:15:59.028Z,6.70
2022-11-28T18:20:05.368Z,6.70
2022-11-28T18:24:08.756Z,6.70
2022-11-28T18:28:15.880Z,6.70
2022-11-28T18:32:21.406Z,6.70
2022-11-28T18:36:27.359Z,6.70
2022-11-28T18:40:31.737Z,6.70
2022-11-28T18:44:34.720Z,6.70
2022-11-28T18:48:39.663Z,6.80
2022-11-28T18:52:43.875Z,6.70
2022-11-28T18:56:47.273Z,6.80
2022-11-28T19:00:50.313Z,6.80
2022-11-28T19:04:53.394Z,6.80
2022-11-28T19:09:01.261Z,6.80
2022-11-28T19:13:04.229Z,6.80
2022-11-28T19:17:08.338Z,6.80
2022-11-28T19:21:13.383Z,6.80
2022-11-28T19:25:17.945Z,6.90
2022-11-28T19:29:20.962Z,6.90
2022-11-28T19:33:24.211Z,6.90
2022-11-28T19:37:27.107Z,6.90
2022-11-28T19:41:32.196Z,6.90
2022-11-28T19:45:35.289Z,6.80
2022-11-28T19:49:42.581Z,6.90
2022-11-28T19:53:50.400Z,6.80
2022-11-28T19:57:57.676Z,6.80
2022-11-28T20:02:02.526Z,6.80
2022-11-28T20:06:11.480Z,6.70
2022-11-28T20:10:14.560Z,6.70
2022-11-28T20:14:21.411Z,6.80
2022-11-28T20:18:24.333Z,6.80
2022-11-28T20:22:27.739Z,6.80
2022-11-28T20:26:32.055Z,6.70
2022-11-28T20:30:38.145Z,6.70
2022-11-28T20:34:41.107Z,6.70
2022-11-28T20:38:52.931Z,6.70
2022-11-28T20:42:59.501Z,6.70
2022-11-28T20:47:03.719Z,6.70
2022-11-28T20:51:09.874Z,6.70
2022-11-28T20:55:12.983Z,6.70
2022-11-28T20:59:17.734Z,6.70
2022-11-28T21:03:21.958Z,6.70
2022-11-28T21:07:26.601Z,6.70
2022-11-28T21:11:55.798Z,6.70
2022-11-28T21:15:53.409Z,6.70
2022-11-28T21:19:57.684Z,6.80
2022-11-28T21:24:02.545Z,6.80
2022-11-28T21:28:06.288Z,6.80
2022-11-28T21:32:11.300Z,6.80
2022-11-28T21:36:15.631Z,6.80
2022-11-28T21:40:18.909Z,6.80
2022-11-28T21:44:21.773Z,6.90
2022-11-28T21:48:25.447Z,6.90
2022-11-28T21:52:29.731Z,6.90
2022-11-28T21:56:32.628Z,6.90
2022-11-28T22:00:52.657Z,6.90
2022-11-28T22:05:00.421Z,6.90
2022-11-28T22:09:09.366Z,6.90
2022-11-28T22:13:13.736Z,6.90
2022-11-28T22:17:17.138Z,6.90
2022-11-28T22:25:52.994Z,7.00
2022-11-28T22:29:56.363Z,6.90
2022-11-28T22:33:59.290Z,7.00
2022-11-28T22:38:02.185Z,7.00
2022-11-28T22:42:06.576Z,7.00
2022-11-28T22:46:10.661Z,7.00
2022-11-28T22:50:13.620Z,7.00
2022-11-28T22:54:16.521Z,7.00
2022-11-28T22:58:21.373Z,7.00
2022-11-28T23:02:24.782Z,7.00
2022-11-28T23:06:35.590Z,7.00
2022-11-28T23:10:39.164Z,7.00
2022-11-28T23:14:43.838Z,7.00
2022-11-28T23:18:51.170Z,7.10
2022-11-28T23:22:53.999Z,7.10
2022-11-28T23:26:56.927Z,7.10
2022-11-28T23:31:07.471Z,7.10
2022-11-28T23:35:10.663Z,7.10
2022-11-28T23:39:15.554Z,7.10
2022-11-28T23:43:18.380Z,7.10
2022-11-28T23:47:22.525Z,7.10
2022-11-28T23:51:26.828Z,7.10
2022-11-28T23:55:29.673Z,7.20
2022-11-28T23:59:32.471Z,7.10
